createdAt,value
2018-11-23T00:00:31.960Z,14.15
2018-11-23T00:03:03.653Z,15.75
2018-11-23T00:05:32.858Z,14.63
2018-11-23T00:08:02.863Z,15.38
2018-11-23T00:10:33.319Z,14.45
2018-11-23T00:13:03.020Z,15.05
2018-11-23T00:15:32.266Z,15.23
2018-11-23T00:18:02.155Z,15.63
2018-11-23T00:20:31.489Z,15.78
2018-11-23T00:23:04.631Z,17.27
2018-11-23T00:25:33.843Z,14.75
2018-11-23T00:28:04.563Z,17.60
2018-11-23T00:30:33.805Z,17.00
2018-11-23T00:33:06.648Z,14.98
2018-11-23T00:35:35.865Z,15.70
2018-11-23T00:38:05.081Z,15.65
2018-11-23T00:40:35.569Z,16.60
2018-11-23T00:43:05.107Z,18.20
2018-11-23T00:45:35.646Z,16.17
2018-11-23T00:48:04.760Z,15.68
2018-11-23T00:50:34.003Z,15.88
2018-11-23T00:53:04.656Z,17.17
2018-11-23T00:55:34.165Z,17.25
2018-11-23T00:58:05.485Z,18.90
2018-11-23T01:00:35.302Z,18.77
2018-11-23T01:03:06.646Z,17.95
2018-11-23T01:05:35.874Z,14.38
2018-11-23T01:08:05.831Z,13.83
2018-11-23T01:10:35.389Z,13.45
2018-11-23T01:13:07.755Z,15.15
2018-11-23T01:15:37.235Z,14.40
2018-11-23T01:18:07.337Z,13.40
2018-11-23T01:20:36.892Z,13.85
2018-11-23T01:23:07.350Z,13.88
2018-11-23T01:25:37.564Z,13.60
2018-11-23T01:28:06.764Z,14.75
2018-11-23T01:30:36.602Z,14.50
2018-11-23T01:33:06.925Z,13.93
2018-11-23T01:35:37.170Z,15.85
2018-11-23T01:38:06.532Z,15.58
2018-11-23T01:40:35.765Z,14.98
2018-11-23T01:43:07.090Z,15.18
2018-11-23T01:45:36.336Z,13.88
2018-11-23T01:48:09.584Z,16.23
2018-11-23T01:50:38.806Z,15.35
2018-11-23T01:53:08.111Z,16.87
2018-11-23T01:55:37.331Z,14.18
2018-11-23T01:58:08.756Z,14.38
2018-11-23T02:00:38.877Z,12.60
2018-11-23T02:03:08.242Z,12.37
2018-11-23T02:05:37.818Z,14.25
2018-11-23T02:08:08.111Z,12.95
2018-11-23T02:10:37.304Z,13.88
2018-11-23T02:13:08.705Z,14.90
2018-11-23T02:15:38.019Z,13.32
2018-11-23T02:18:09.197Z,15.30
2018-11-23T02:20:38.454Z,14.40
2018-11-23T02:23:08.759Z,17.62
2018-11-23T02:25:37.967Z,15.08
2018-11-23T02:28:11.052Z,14.40
2018-11-23T02:30:41.068Z,14.43
2018-11-23T02:33:11.756Z,15.45
2018-11-23T02:35:40.954Z,14.03
2018-11-23T02:38:10.122Z,15.18
2018-11-23T02:40:39.311Z,13.20
2018-11-23T02:43:09.696Z,14.95
2018-11-23T02:45:38.888Z,15.15
2018-11-23T02:48:08.772Z,12.93
2018-11-23T02:50:38.512Z,15.75
2018-11-23T02:53:09.169Z,16.23
2018-11-23T02:55:38.566Z,13.00
2018-11-23T02:58:08.738Z,13.10
2018-11-23T03:00:37.931Z,15.45
2018-11-23T03:03:07.924Z,15.28
2018-11-23T03:05:37.144Z,15.15
2018-11-23T03:08:07.223Z,14.47
2018-11-23T03:10:36.664Z,15.28
2018-11-23T03:13:06.047Z,15.00
2018-11-23T03:15:35.862Z,13.10
2018-11-23T03:18:05.265Z,13.88
2018-11-23T03:20:34.473Z,15.18
2018-11-23T03:23:05.908Z,13.32
2018-11-23T03:25:36.135Z,16.23
2018-11-23T03:28:05.388Z,12.23
2018-11-23T03:30:34.581Z,14.55
2018-11-23T03:33:05.083Z,12.93
2018-11-23T03:35:34.294Z,13.65
2018-11-23T03:38:04.653Z,12.75
2018-11-23T03:40:33.828Z,14.40
2018-11-23T03:43:03.759Z,13.45
2018-11-23T03:45:35.222Z,14.20
2018-11-23T03:48:08.848Z,14.15
2018-11-23T03:50:38.806Z,14.95
2018-11-23T03:53:09.047Z,14.05
2018-11-23T03:55:38.263Z,13.83
2018-11-23T03:58:07.473Z,12.20
2018-11-23T04:00:39.649Z,13.00
2018-11-23T04:03:09.918Z,13.75
2018-11-23T04:05:39.118Z,15.30
2018-11-23T04:08:10.237Z,13.98
2018-11-23T04:10:39.639Z,16.12
2018-11-23T04:13:14.471Z,14.85
2018-11-23T04:15:43.685Z,16.20
2018-11-23T04:18:13.268Z,13.95
2018-11-23T04:20:46.713Z,13.13
2018-11-23T04:23:16.143Z,12.73
2018-11-23T04:25:45.336Z,13.78
2018-11-23T04:28:14.567Z,13.53
2018-11-23T04:30:43.762Z,17.20
2018-11-23T04:33:14.177Z,14.30
2018-11-23T04:35:45.611Z,13.62
2018-11-23T04:38:14.814Z,12.82
2018-11-23T04:40:44.076Z,14.10
2018-11-23T04:43:13.758Z,13.10
2018-11-23T04:45:43.002Z,14.40
2018-11-23T04:48:13.017Z,14.87
2018-11-23T04:50:42.568Z,13.90
2018-11-23T04:53:12.611Z,15.20
2018-11-23T04:55:42.718Z,13.15
2018-11-23T04:58:13.861Z,14.45
2018-11-23T05:00:43.179Z,12.63
2018-11-23T05:03:15.519Z,12.85
2018-11-23T05:05:44.888Z,13.58
2018-11-23T05:08:14.417Z,12.75
2018-11-23T05:10:44.020Z,13.43
2018-11-23T05:13:15.516Z,11.78
2018-11-23T05:15:44.850Z,12.23
2018-11-23T05:18:15.372Z,13.68
2018-11-23T05:20:44.595Z,13.00
2018-11-23T05:23:20.516Z,14.38
2018-11-23T05:25:49.704Z,14.95
2018-11-23T05:28:20.221Z,14.10
2018-11-23T05:30:50.911Z,13.80
2018-11-23T05:33:31.406Z,13.05
2018-11-23T05:36:05.859Z,15.70
2018-11-23T05:38:35.617Z,13.28
2018-11-23T05:41:04.903Z,16.57
2018-11-23T05:43:34.624Z,17.77
2018-11-23T05:46:03.923Z,18.30
2018-11-23T05:48:33.234Z,15.43
2018-11-23T05:51:03.216Z,18.15
2018-11-23T05:53:32.521Z,16.75
2018-11-23T05:56:04.560Z,15.78
2018-11-23T05:58:34.403Z,13.53
2018-11-23T06:01:04.405Z,14.83
2018-11-23T06:03:37.503Z,18.32
2018-11-23T06:06:06.757Z,15.88
2018-11-23T06:08:36.619Z,14.65
2018-11-23T06:11:06.862Z,15.10
2018-11-23T06:13:36.280Z,12.50
2018-11-23T06:16:05.715Z,11.70
2018-11-23T06:18:35.703Z,12.63
2018-11-23T06:21:05.670Z,14.30
2018-11-23T06:23:38.875Z,11.45
2018-11-23T06:26:17.680Z,12.70
2018-11-23T06:28:47.926Z,13.35
2018-11-23T06:31:18.049Z,14.83
2018-11-23T06:33:48.539Z,13.75
2018-11-23T06:36:18.789Z,14.95
2018-11-23T06:38:48.224Z,12.55
2018-11-23T06:41:18.884Z,12.82
2018-11-23T06:43:48.195Z,14.60
2018-11-23T06:46:22.344Z,17.85
2018-11-23T06:48:51.842Z,19.65
2018-11-23T06:51:21.702Z,16.77
2018-11-23T06:53:50.900Z,21.27
2018-11-23T06:56:20.336Z,17.98
2018-11-23T06:58:49.507Z,16.40
2018-11-23T07:01:19.142Z,20.68
2018-11-23T07:03:48.648Z,17.90
2018-11-23T07:06:19.178Z,17.23
2018-11-23T07:08:52.369Z,15.48
2018-11-23T07:11:19.144Z,17.10
2018-11-23T07:13:48.778Z,19.12
2018-11-23T07:16:18.781Z,18.50
2018-11-23T07:18:48.088Z,16.65
2018-11-23T07:21:21.559Z,14.18
2018-11-23T07:23:47.623Z,15.48
2018-11-23T07:26:16.888Z,15.25
2018-11-23T07:28:47.026Z,17.60
2018-11-23T07:31:16.350Z,16.23
2018-11-23T07:33:47.997Z,16.12
2018-11-23T07:36:20.153Z,19.12
2018-11-23T07:38:50.342Z,21.50
2018-11-23T07:41:30.595Z,20.00
2018-11-23T07:43:59.882Z,21.57
2018-11-23T07:46:29.738Z,19.30
2018-11-23T07:48:59.340Z,19.40
2018-11-23T07:51:28.621Z,18.85
2018-11-23T07:53:57.863Z,21.12
2018-11-23T07:56:27.059Z,22.15
2018-11-23T07:58:56.255Z,24.18
2018-11-23T08:01:26.676Z,19.92
2018-11-23T08:03:56.499Z,20.48
2018-11-23T08:06:42.744Z,21.90
2018-11-23T08:09:11.945Z,20.90
2018-11-23T08:11:51.311Z,21.17
2018-11-23T08:14:23.749Z,19.85
2018-11-23T08:16:53.446Z,20.55
2018-11-23T08:19:23.004Z,21.45
2018-11-23T08:21:52.710Z,20.75
2018-11-23T08:24:22.859Z,23.92
2018-11-23T08:26:52.787Z,25.90
2018-11-23T08:29:24.915Z,24.43
2018-11-23T08:31:56.553Z,23.02
2018-11-23T08:34:27.155Z,23.25
2018-11-23T08:36:57.214Z,23.00
2018-11-23T08:39:26.753Z,22.40
2018-11-23T08:41:56.759Z,22.55
2018-11-23T08:44:26.098Z,20.50
2018-11-23T08:46:55.601Z,24.27
2018-11-23T08:49:25.484Z,23.32
2018-11-23T08:51:55.808Z,24.18
2018-11-23T08:54:25.725Z,21.02
2018-11-23T08:56:54.975Z,23.98
2018-11-23T08:59:24.871Z,23.05
2018-11-23T09:01:54.469Z,24.43
2018-11-23T09:04:24.266Z,23.07
2018-11-23T09:06:53.597Z,22.60
2018-11-23T09:09:24.700Z,21.52
2018-11-23T09:11:55.399Z,23.00
2018-11-23T09:14:26.246Z,24.80
2018-11-23T09:16:55.467Z,21.95
2018-11-23T09:19:26.107Z,23.85
2018-11-23T09:21:56.335Z,22.32
2018-11-23T09:24:27.329Z,21.95
2018-11-23T09:26:56.662Z,21.52
2018-11-23T09:29:28.726Z,22.35
2018-11-23T09:31:58.704Z,24.20
2018-11-23T09:34:29.590Z,27.00
2018-11-23T09:37:24.903Z,24.85
2018-11-23T09:39:55.504Z,25.75
2018-11-23T09:42:25.293Z,27.52
2018-11-23T09:44:58.936Z,24.63
2018-11-23T09:47:28.913Z,27.42
2018-11-23T09:49:58.224Z,26.85
2018-11-23T09:52:31.027Z,26.10
2018-11-23T09:55:02.506Z,26.15
2018-11-23T09:57:31.820Z,24.12
2018-11-23T10:00:02.417Z,24.75
2018-11-23T10:02:31.969Z,25.48
2018-11-23T10:05:02.661Z,27.02
2018-11-23T10:07:32.679Z,23.57
2018-11-23T10:10:03.100Z,23.73
2018-11-23T10:12:32.626Z,21.80
2018-11-23T10:15:02.097Z,24.75
2018-11-23T10:17:32.007Z,24.57
2018-11-23T10:20:01.721Z,24.80
2018-11-23T10:22:31.369Z,23.00
2018-11-23T10:25:00.732Z,22.85
2018-11-23T10:27:30.836Z,21.73
2018-11-23T10:30:01.368Z,22.22
2018-11-23T10:32:31.762Z,21.50
2018-11-23T10:35:01.239Z,19.67
2018-11-23T10:37:32.634Z,21.00
2018-11-23T10:40:04.098Z,21.87
2018-11-23T10:42:35.691Z,19.60
2018-11-23T10:45:09.288Z,20.37
2018-11-23T10:47:39.156Z,18.12
2018-11-23T10:50:20.011Z,22.07
2018-11-23T10:52:50.685Z,21.62
2018-11-23T10:55:27.050Z,20.50
2018-11-23T10:57:57.883Z,17.70
2018-11-23T11:00:34.247Z,17.30
2018-11-23T11:03:08.972Z,14.60
2018-11-23T11:05:44.780Z,13.90
2018-11-23T11:08:14.616Z,15.00
2018-11-23T11:10:45.589Z,13.25
2018-11-23T11:13:17.378Z,14.23
2018-11-23T11:15:47.561Z,14.07
2018-11-23T11:18:17.772Z,14.05
2018-11-23T11:20:47.689Z,12.40
2018-11-23T11:23:19.454Z,14.93
2018-11-23T11:25:50.233Z,14.25
2018-11-23T11:28:25.581Z,14.03
2018-11-23T11:30:54.952Z,14.98
2018-11-23T11:33:25.602Z,14.85
2018-11-23T11:35:55.285Z,13.75
2018-11-23T11:38:26.063Z,14.35
2018-11-23T11:40:56.221Z,12.25
2018-11-23T11:43:38.291Z,13.85
2018-11-23T11:46:09.138Z,14.45
2018-11-23T11:48:49.650Z,15.15
2018-11-23T11:51:25.881Z,12.60
2018-11-23T11:53:55.633Z,12.63
2018-11-23T11:56:28.376Z,13.58
2018-11-23T11:58:58.602Z,13.72
2018-11-23T12:01:35.050Z,12.60
2018-11-23T12:04:06.560Z,14.58
2018-11-23T12:06:38.675Z,13.65
2018-11-23T12:09:10.295Z,13.85
2018-11-23T12:11:40.361Z,13.22
2018-11-23T12:14:10.098Z,13.00
2018-11-23T12:16:39.937Z,14.45
2018-11-23T12:19:10.729Z,12.20
2018-11-23T12:21:40.942Z,13.55
2018-11-23T12:24:11.286Z,13.50
2018-11-23T12:26:41.693Z,13.08
2018-11-23T12:29:12.580Z,13.35
2018-11-23T12:31:43.163Z,14.75
2018-11-23T12:34:13.120Z,13.00
2018-11-23T12:36:43.599Z,13.05
2018-11-23T12:39:13.878Z,13.53
2018-11-23T12:41:43.897Z,14.35
2018-11-23T12:44:13.776Z,13.50
2018-11-23T12:46:44.619Z,15.55
2018-11-23T12:49:14.187Z,14.90
2018-11-23T12:51:45.625Z,14.07
2018-11-23T12:54:15.175Z,15.95
2018-11-23T12:56:48.736Z,14.00
2018-11-23T12:59:18.469Z,16.23
2018-11-23T13:01:50.601Z,16.27
2018-11-23T13:04:20.230Z,16.95
2018-11-23T13:06:49.766Z,17.40
2018-11-23T13:09:20.208Z,19.42
2018-11-23T13:11:49.979Z,17.73
2018-11-23T13:14:20.292Z,20.15
2018-11-23T13:16:51.352Z,18.60
2018-11-23T13:19:23.198Z,16.60
2018-11-23T13:21:56.794Z,19.30
2018-11-23T13:24:27.466Z,17.35
2018-11-23T13:26:57.081Z,18.20
2018-11-23T13:29:28.106Z,17.70
2018-11-23T13:31:58.739Z,17.00
2018-11-23T13:34:28.336Z,16.40
2018-11-23T13:36:59.345Z,16.10
2018-11-23T13:39:28.661Z,17.30
2018-11-23T13:41:58.907Z,18.92
2018-11-23T13:44:28.173Z,18.15
2018-11-23T13:46:57.547Z,16.60
2018-11-23T13:49:29.033Z,16.87
2018-11-23T13:51:58.702Z,17.98
2018-11-23T13:54:28.683Z,18.77
2018-11-23T13:56:58.193Z,16.93
2018-11-23T13:59:27.614Z,16.10
2018-11-23T14:01:57.142Z,17.07
2018-11-23T14:04:26.520Z,16.12
2018-11-23T14:06:55.854Z,16.85
2018-11-23T14:09:25.215Z,17.15
2018-11-23T14:11:54.618Z,16.40
2018-11-23T14:14:24.047Z,16.45
2018-11-23T14:16:53.231Z,16.05
2018-11-23T14:19:22.656Z,15.60
2018-11-23T14:21:52.571Z,15.83
2018-11-23T14:24:22.029Z,17.17
2018-11-23T14:26:51.227Z,15.70
2018-11-23T14:29:21.441Z,17.10
2018-11-23T14:31:52.799Z,17.90
2018-11-23T14:34:22.102Z,15.80
2018-11-23T14:36:52.518Z,15.25
2018-11-23T14:39:21.682Z,17.27
2018-11-23T14:41:50.870Z,14.53
2018-11-23T14:44:20.097Z,16.82
2018-11-23T14:46:49.893Z,16.50
2018-11-23T14:49:19.124Z,16.10
2018-11-23T14:51:50.180Z,15.88
2018-11-23T14:54:20.379Z,16.48
2018-11-23T14:56:51.444Z,16.17
2018-11-23T14:59:21.496Z,15.70
2018-11-23T15:01:52.300Z,14.78
2018-11-23T15:04:22.603Z,13.72
2018-11-23T15:06:51.849Z,13.83
2018-11-23T15:09:21.553Z,13.70
2018-11-23T15:11:51.832Z,13.95
2018-11-23T15:14:21.632Z,12.60
2018-11-23T15:16:51.393Z,13.40
2018-11-23T15:19:21.583Z,12.90
2018-11-23T15:21:51.978Z,12.90
2018-11-23T15:24:21.367Z,12.85
2018-11-23T15:26:52.033Z,12.10
2018-11-23T15:29:21.743Z,11.18
2018-11-23T15:31:52.014Z,13.50
2018-11-23T15:34:21.203Z,13.80
2018-11-23T15:36:51.696Z,13.68
2018-11-23T15:39:21.582Z,13.30
2018-11-23T15:41:52.339Z,13.40
2018-11-23T15:44:22.437Z,13.20
2018-11-23T15:46:51.605Z,13.80
2018-11-23T15:49:20.955Z,11.20
2018-11-23T15:51:51.425Z,11.00
2018-11-23T15:54:20.631Z,12.15
2018-11-23T15:56:51.295Z,10.70
2018-11-23T15:59:21.609Z,12.05
2018-11-23T16:01:51.903Z,11.93
2018-11-23T16:04:21.111Z,11.93
2018-11-23T16:06:51.041Z,11.90
2018-11-23T16:09:20.960Z,12.00
2018-11-23T16:11:50.421Z,13.32
2018-11-23T16:14:19.912Z,13.72
2018-11-23T16:16:51.898Z,15.00
2018-11-23T16:19:21.183Z,16.52
2018-11-23T16:23:00.109Z,18.15
2018-11-23T16:25:29.337Z,18.95
2018-11-23T16:28:01.127Z,15.40
2018-11-23T16:30:34.908Z,14.38
2018-11-23T16:33:08.125Z,13.35
2018-11-23T16:35:38.347Z,14.10
2018-11-23T16:38:10.931Z,13.13
2018-11-23T16:40:41.821Z,15.40
2018-11-23T16:43:12.338Z,20.37
2018-11-23T16:45:45.615Z,15.20
2018-11-23T16:48:15.556Z,12.93
2018-11-23T16:50:47.108Z,11.97
2018-11-23T16:53:16.502Z,10.72
2018-11-23T16:55:47.299Z,11.10
2018-11-23T16:58:17.119Z,9.95
2018-11-23T17:00:47.828Z,10.20
2018-11-23T17:03:18.802Z,11.68
2018-11-23T17:05:50.469Z,10.78
2018-11-23T17:08:22.776Z,10.98
2018-11-23T17:10:54.883Z,11.85
2018-11-23T17:13:24.230Z,12.35
2018-11-23T17:15:56.948Z,11.85
2018-11-23T17:18:26.150Z,12.65
2018-11-23T17:20:59.309Z,11.95
2018-11-23T17:23:30.143Z,11.38
2018-11-23T17:26:00.056Z,12.70
2018-11-23T17:28:30.100Z,13.18
2018-11-23T17:31:02.540Z,14.58
2018-11-23T17:33:32.651Z,13.45
2018-11-23T17:36:02.287Z,12.78
2018-11-23T17:38:37.559Z,9.90
2018-11-23T17:41:01.216Z,12.00
2018-11-23T17:43:30.669Z,10.55
2018-11-23T17:46:05.563Z,14.90
2018-11-23T17:48:35.469Z,10.63
2018-11-23T17:51:05.844Z,10.32
2018-11-23T17:53:37.498Z,10.82
2018-11-23T17:56:07.067Z,9.55
2018-11-23T17:58:40.877Z,10.20
2018-11-23T18:01:14.478Z,9.45
2018-11-23T18:03:43.825Z,10.70
2018-11-23T18:06:13.100Z,10.82
2018-11-23T18:08:44.037Z,10.88
2018-11-23T18:11:13.289Z,11.40
2018-11-23T18:13:42.868Z,12.98
2018-11-23T18:16:12.809Z,12.25
2018-11-23T18:18:42.038Z,9.53
2018-11-23T18:21:15.383Z,11.55
2018-11-23T18:23:45.207Z,9.48
2018-11-23T18:26:15.692Z,10.20
2018-11-23T18:28:46.219Z,11.95
2018-11-23T18:31:17.149Z,11.35
2018-11-23T18:33:46.366Z,11.00
2018-11-23T18:36:15.653Z,11.53
2018-11-23T18:38:45.252Z,11.70
2018-11-23T18:41:16.229Z,10.20
2018-11-23T18:43:46.312Z,8.68
2018-11-23T18:46:15.731Z,10.08
2018-11-23T18:49:23.543Z,10.58
2018-11-23T18:51:53.219Z,10.25
2018-11-23T18:54:23.026Z,11.28
2018-11-23T18:56:53.434Z,10.18
2018-11-23T18:59:22.933Z,12.18
2018-11-23T19:01:55.042Z,9.45
2018-11-23T19:04:25.141Z,11.65
2018-11-23T19:06:56.408Z,11.73
2018-11-23T19:09:29.567Z,11.20
2018-11-23T19:11:59.144Z,16.00
2018-11-23T19:14:28.401Z,13.70
2018-11-23T19:16:58.397Z,14.78
2018-11-23T19:19:27.673Z,16.20
2018-11-23T19:21:58.077Z,14.50
2018-11-23T19:24:27.775Z,12.80
2018-11-23T19:26:57.509Z,13.55
2018-11-23T19:29:27.435Z,15.20
2018-11-23T19:31:56.940Z,13.50
2018-11-23T19:34:26.988Z,12.05
2018-11-23T19:36:56.625Z,13.38
2018-11-23T19:39:26.226Z,15.20
2018-11-23T19:41:55.742Z,15.60
2018-11-23T19:44:40.503Z,13.60
2018-11-23T19:47:11.476Z,14.05
2018-11-23T19:49:40.896Z,13.88
2018-11-23T19:52:10.583Z,15.60
2018-11-23T19:55:01.159Z,15.13
2018-11-23T19:57:42.832Z,15.95
2018-11-23T20:00:25.615Z,16.37
2018-11-23T20:02:55.265Z,16.80
2018-11-23T20:05:24.690Z,17.15
2018-11-23T20:07:55.629Z,17.23
2018-11-23T20:10:26.855Z,16.30
2018-11-23T20:12:57.375Z,15.85
2018-11-23T20:15:27.455Z,16.27
2018-11-23T20:17:57.604Z,16.70
2018-11-23T20:20:28.973Z,13.93
2018-11-23T20:22:59.419Z,12.65
2018-11-23T20:25:31.711Z,11.43
2018-11-23T20:28:01.319Z,12.53
2018-11-23T20:30:31.227Z,11.70
2018-11-23T20:33:01.308Z,12.40
2018-11-23T20:35:33.165Z,12.58
2018-11-23T20:38:02.452Z,12.13
2018-11-23T20:40:32.748Z,12.65
2018-11-23T20:43:03.571Z,12.73
2018-11-23T20:45:32.805Z,11.65
2018-11-23T20:48:02.816Z,12.53
2018-11-23T20:51:06.041Z,12.50
2018-11-23T20:54:07.220Z,11.90
2018-11-23T20:56:36.608Z,10.72
2018-11-23T20:59:05.884Z,14.85
2018-11-23T21:01:36.468Z,16.80
2018-11-23T21:04:06.083Z,17.12
2018-11-23T21:06:36.735Z,17.67
2018-11-23T21:09:09.287Z,16.32
2018-11-23T21:11:38.704Z,16.40
2018-11-23T21:14:08.191Z,16.80
2018-11-23T21:17:26.826Z,19.35
2018-11-23T21:20:05.562Z,17.50
2018-11-23T21:22:54.374Z,13.22
2018-11-23T21:25:23.859Z,12.35
2018-11-23T21:27:53.268Z,12.60
2018-11-23T21:30:23.422Z,13.05
2018-11-23T21:32:53.771Z,11.63
2018-11-23T21:35:24.231Z,11.63
2018-11-23T21:37:53.641Z,15.32
2018-11-23T21:40:25.698Z,11.85
2018-11-23T21:42:55.692Z,13.43
2018-11-23T21:45:25.830Z,12.53
2018-11-23T21:47:57.495Z,13.78
2018-11-23T21:50:30.550Z,15.10
2018-11-23T21:53:01.017Z,20.02
2018-11-23T21:55:31.751Z,19.42
2018-11-23T21:58:01.019Z,16.95
2018-11-23T22:00:32.464Z,15.20
2018-11-23T22:03:02.737Z,15.43
2018-11-23T22:05:33.959Z,16.30
2018-11-23T22:08:03.370Z,14.20
2018-11-23T22:10:34.187Z,15.05
2018-11-23T22:13:03.667Z,14.78
2018-11-23T22:15:33.940Z,16.60
2018-11-23T22:18:04.071Z,17.62
2018-11-23T22:20:35.901Z,14.78
2018-11-23T22:23:08.400Z,14.03
2018-11-23T22:25:37.946Z,13.32
2018-11-23T22:28:07.287Z,15.53
2018-11-23T22:30:37.105Z,13.15
2018-11-23T22:33:06.725Z,14.87
2018-11-23T22:35:37.835Z,14.05
2018-11-23T22:38:08.687Z,13.15
2018-11-23T22:40:40.716Z,13.30
2018-11-23T22:43:09.873Z,13.48
2018-11-23T22:45:39.331Z,12.85
2018-11-23T22:48:09.240Z,13.20
2018-11-23T22:50:38.466Z,12.88
2018-11-23T22:53:08.051Z,14.98
2018-11-23T22:55:37.280Z,13.58
2018-11-23T22:58:06.668Z,15.93
2018-11-23T23:00:38.323Z,13.88
2018-11-23T23:03:07.866Z,14.80
2018-11-23T23:05:37.055Z,13.18
2018-11-23T23:08:07.135Z,12.30
2018-11-23T23:10:37.122Z,12.05
2018-11-23T23:13:06.475Z,14.58
2018-11-23T23:15:36.481Z,15.00
2018-11-23T23:18:06.421Z,13.55
2018-11-23T23:20:36.219Z,14.87
2018-11-23T23:23:06.632Z,13.50
2018-11-23T23:25:36.953Z,12.28
2018-11-23T23:28:06.565Z,14.18
2018-11-23T23:30:37.433Z,13.38
2018-11-23T23:33:06.421Z,13.68
2018-11-23T23:35:36.299Z,13.10
2018-11-23T23:38:06.705Z,12.05
2018-11-23T23:40:36.519Z,13.00
2018-11-23T23:43:05.965Z,14.30
2018-11-23T23:45:35.855Z,13.90
2018-11-23T23:48:05.332Z,14.47
2018-11-23T23:50:35.567Z,14.25
2018-11-23T23:53:05.606Z,13.20
2018-11-23T23:55:35.170Z,11.90
2018-11-23T23:58:04.956Z,12.95
